sensor_id;sensor_type;location;lat;lon;timestamp;P1;durP1;ratioP1;P2;durP2;ratioP2
19671;SDS011;9983;51.114;13.788;2022-12-07T00:02:59;19.52;;;11.13;;
19671;SDS011;9983;51.114;13.788;2022-12-07T00:08:00;21.55;;;12.93;;
19671;SDS011;9983;51.114;13.788;2022-12-07T00:13:00;16.05;;;10.30;;
19671;SDS011;9983;51.114;13.788;2022-12-07T00:18:00;18.23;;;11.10;;
19671;SDS011;9983;51.114;13.788;2022-12-07T00:23:01;15.77;;;9.93;;
19671;SDS011;9983;51.114;13.788;2022-12-07T00:28:01;14.85;;;9.85;;
19671;SDS011;9983;51.114;13.788;2022-12-07T00:33:01;12.95;;;7.13;;
19671;SDS011;9983;51.114;13.788;2022-12-07T00:38:02;16.20;;;9.82;;
19671;SDS011;9983;51.114;13.788;2022-12-07T00:43:02;16.40;;;10.15;;
19671;SDS011;9983;51.114;13.788;2022-12-07T00:48:02;15.88;;;9.15;;
19671;SDS011;9983;51.114;13.788;2022-12-07T00:53:02;17.92;;;10.30;;
19671;SDS011;9983;51.114;13.788;2022-12-07T00:58:03;14.70;;;9.35;;
19671;SDS011;9983;51.114;13.788;2022-12-07T01:03:04;16.75;;;10.70;;
19671;SDS011;9983;51.114;13.788;2022-12-07T01:08:06;17.25;;;9.18;;
19671;SDS011;9983;51.114;13.788;2022-12-07T01:13:06;14.88;;;9.40;;
19671;SDS011;9983;51.114;13.788;2022-12-07T01:18:07;15.77;;;10.63;;
19671;SDS011;9983;51.114;13.788;2022-12-07T01:23:07;17.48;;;10.82;;
19671;SDS011;9983;51.114;13.788;2022-12-07T01:28:07;16.05;;;9.70;;
19671;SDS011;9983;51.114;13.788;2022-12-07T01:33:08;14.93;;;9.07;;
19671;SDS011;9983;51.114;13.788;2022-12-07T01:38:08;15.23;;;9.68;;
19671;SDS011;9983;51.114;13.788;2022-12-07T01:43:17;15.00;;;9.23;;
19671;SDS011;9983;51.114;13.788;2022-12-07T01:48:20;19.02;;;10.48;;
19671;SDS011;9983;51.114;13.788;2022-12-07T01:53:34;18.52;;;10.35;;
19671;SDS011;9983;51.114;13.788;2022-12-07T01:58:38;15.77;;;10.20;;
19671;SDS011;9983;51.114;13.788;2022-12-07T02:03:39;17.75;;;10.68;;
19671;SDS011;9983;51.114;13.788;2022-12-07T02:08:41;15.52;;;9.63;;
19671;SDS011;9983;51.114;13.788;2022-12-07T02:13:42;14.82;;;9.63;;
19671;SDS011;9983;51.114;13.788;2022-12-07T02:29:26;14.57;;;9.48;;
19671;SDS011;9983;51.114;13.788;2022-12-07T02:39:59;12.63;;;8.88;;
19671;SDS011;9983;51.114;13.788;2022-12-07T02:45:21;12.32;;;8.15;;
19671;SDS011;9983;51.114;13.788;2022-12-07T02:50:23;11.98;;;8.70;;
19671;SDS011;9983;51.114;13.788;2022-12-07T02:55:28;13.60;;;8.93;;
19671;SDS011;9983;51.114;13.788;2022-12-07T03:00:35;13.70;;;8.70;;
19671;SDS011;9983;51.114;13.788;2022-12-07T03:11:25;12.85;;;8.40;;
19671;SDS011;9983;51.114;13.788;2022-12-07T03:16:33;12.15;;;7.82;;
19671;SDS011;9983;51.114;13.788;2022-12-07T03:21:42;11.68;;;8.32;;
19671;SDS011;9983;51.114;13.788;2022-12-07T03:26:47;12.35;;;7.90;;
19671;SDS011;9983;51.114;13.788;2022-12-07T03:31:53;12.93;;;8.75;;
19671;SDS011;9983;51.114;13.788;2022-12-07T03:37:11;13.85;;;8.07;;
19671;SDS011;9983;51.114;13.788;2022-12-07T03:42:17;15.10;;;9.25;;
19671;SDS011;9983;51.114;13.788;2022-12-07T03:47:23;13.95;;;8.13;;
19671;SDS011;9983;51.114;13.788;2022-12-07T03:52:35;12.18;;;8.68;;
19671;SDS011;9983;51.114;13.788;2022-12-07T03:57:40;12.32;;;8.55;;
19671;SDS011;9983;51.114;13.788;2022-12-07T04:02:42;14.60;;;9.20;;
19671;SDS011;9983;51.114;13.788;2022-12-07T04:07:43;13.75;;;9.48;;
19671;SDS011;9983;51.114;13.788;2022-12-07T04:12:43;16.67;;;9.65;;
19671;SDS011;9983;51.114;13.788;2022-12-07T04:17:43;16.65;;;9.95;;
19671;SDS011;9983;51.114;13.788;2022-12-07T04:22:43;13.30;;;8.80;;
19671;SDS011;9983;51.114;13.788;2022-12-07T04:27:44;12.63;;;7.97;;
19671;SDS011;9983;51.114;13.788;2022-12-07T04:32:44;13.30;;;8.43;;
19671;SDS011;9983;51.114;13.788;2022-12-07T04:37:44;15.02;;;9.65;;
19671;SDS011;9983;51.114;13.788;2022-12-07T04:42:45;16.27;;;9.25;;
19671;SDS011;9983;51.114;13.788;2022-12-07T04:47:45;13.98;;;9.07;;
19671;SDS011;9983;51.114;13.788;2022-12-07T04:52:45;14.93;;;9.43;;
19671;SDS011;9983;51.114;13.788;2022-12-07T04:57:45;16.25;;;8.95;;
19671;SDS011;9983;51.114;13.788;2022-12-07T05:02:45;20.33;;;11.13;;
19671;SDS011;9983;51.114;13.788;2022-12-07T05:07:46;17.75;;;10.27;;
19671;SDS011;9983;51.114;13.788;2022-12-07T05:12:46;14.55;;;9.70;;
19671;SDS011;9983;51.114;13.788;2022-12-07T05:17:47;17.08;;;9.65;;
19671;SDS011;9983;51.114;13.788;2022-12-07T05:22:47;14.70;;;8.63;;
19671;SDS011;9983;51.114;13.788;2022-12-07T05:27:47;15.35;;;8.75;;
19671;SDS011;9983;51.114;13.788;2022-12-07T05:32:47;17.83;;;9.23;;
19671;SDS011;9983;51.114;13.788;2022-12-07T05:37:48;15.07;;;9.05;;
19671;SDS011;9983;51.114;13.788;2022-12-07T05:42:48;14.85;;;9.18;;
19671;SDS011;9983;51.114;13.788;2022-12-07T05:47:48;15.15;;;9.13;;
19671;SDS011;9983;51.114;13.788;2022-12-07T05:52:48;16.13;;;9.38;;
19671;SDS011;9983;51.114;13.788;2022-12-07T05:57:49;13.98;;;8.82;;
19671;SDS011;9983;51.114;13.788;2022-12-07T06:03:08;15.30;;;9.02;;
19671;SDS011;9983;51.114;13.788;2022-12-07T06:08:08;14.80;;;8.32;;
19671;SDS011;9983;51.114;13.788;2022-12-07T06:13:08;14.00;;;8.20;;
19671;SDS011;9983;51.114;13.788;2022-12-07T06:18:09;10.57;;;6.90;;
19671;SDS011;9983;51.114;13.788;2022-12-07T06:23:09;11.68;;;7.32;;
19671;SDS011;9983;51.114;13.788;2022-12-07T06:28:09;10.52;;;7.00;;
19671;SDS011;9983;51.114;13.788;2022-12-07T06:33:09;11.15;;;6.90;;
19671;SDS011;9983;51.114;13.788;2022-12-07T06:38:10;7.65;;;5.72;;
19671;SDS011;9983;51.114;13.788;2022-12-07T06:43:10;10.13;;;5.97;;
19671;SDS011;9983;51.114;13.788;2022-12-07T06:48:10;8.98;;;6.40;;
19671;SDS011;9983;51.114;13.788;2022-12-07T06:53:11;8.68;;;5.00;;
19671;SDS011;9983;51.114;13.788;2022-12-07T06:58:11;3.83;;;3.17;;
19671;SDS011;9983;51.114;13.788;2022-12-07T07:03:11;6.88;;;4.05;;
19671;SDS011;9983;51.114;13.788;2022-12-07T07:08:11;7.00;;;4.93;;
19671;SDS011;9983;51.114;13.788;2022-12-07T07:13:12;6.75;;;5.45;;
19671;SDS011;9983;51.114;13.788;2022-12-07T07:18:13;7.15;;;5.20;;
19671;SDS011;9983;51.114;13.788;2022-12-07T07:23:13;7.32;;;4.78;;
19671;SDS011;9983;51.114;13.788;2022-12-07T07:28:14;5.75;;;4.25;;
19671;SDS011;9983;51.114;13.788;2022-12-07T07:33:15;4.45;;;3.85;;
19671;SDS011;9983;51.114;13.788;2022-12-07T07:38:15;5.05;;;4.55;;
19671;SDS011;9983;51.114;13.788;2022-12-07T07:43:15;6.95;;;4.90;;
19671;SDS011;9983;51.114;13.788;2022-12-07T07:48:15;6.95;;;5.38;;
19671;SDS011;9983;51.114;13.788;2022-12-07T07:53:16;7.72;;;5.88;;
19671;SDS011;9983;51.114;13.788;2022-12-07T07:58:16;8.32;;;5.72;;
19671;SDS011;9983;51.114;13.788;2022-12-07T08:03:16;7.63;;;6.50;;
19671;SDS011;9983;51.114;13.788;2022-12-07T08:08:17;7.80;;;5.88;;
19671;SDS011;9983;51.114;13.788;2022-12-07T08:13:17;7.97;;;6.85;;
19671;SDS011;9983;51.114;13.788;2022-12-07T08:18:17;10.10;;;7.32;;
19671;SDS011;9983;51.114;13.788;2022-12-07T08:23:17;9.07;;;6.97;;
19671;SDS011;9983;51.114;13.788;2022-12-07T08:28:18;9.63;;;7.93;;
19671;SDS011;9983;51.114;13.788;2022-12-07T08:33:18;8.10;;;5.97;;
19671;SDS011;9983;51.114;13.788;2022-12-07T08:38:22;9.20;;;6.03;;
19671;SDS011;9983;51.114;13.788;2022-12-07T08:43:22;8.10;;;5.68;;
19671;SDS011;9983;51.114;13.788;2022-12-07T08:48:22;11.43;;;8.45;;
19671;SDS011;9983;51.114;13.788;2022-12-07T08:53:24;10.20;;;8.02;;
19671;SDS011;9983;51.114;13.788;2022-12-07T08:58:24;12.18;;;8.82;;
19671;SDS011;9983;51.114;13.788;2022-12-07T09:03:25;7.05;;;5.57;;
19671;SDS011;9983;51.114;13.788;2022-12-07T09:08:26;9.60;;;7.10;;
19671;SDS011;9983;51.114;13.788;2022-12-07T09:13:31;11.10;;;8.43;;
19671;SDS011;9983;51.114;13.788;2022-12-07T09:18:31;10.48;;;7.47;;
19671;SDS011;9983;51.114;13.788;2022-12-07T09:23:31;5.97;;;4.70;;
19671;SDS011;9983;51.114;13.788;2022-12-07T09:28:31;12.10;;;7.85;;
19671;SDS011;9983;51.114;13.788;2022-12-07T09:33:32;11.10;;;6.82;;
19671;SDS011;9983;51.114;13.788;2022-12-07T09:38:32;9.13;;;6.30;;
19671;SDS011;9983;51.114;13.788;2022-12-07T09:43:33;8.38;;;6.43;;
19671;SDS011;9983;51.114;13.788;2022-12-07T09:48:36;9.13;;;5.47;;
19671;SDS011;9983;51.114;13.788;2022-12-07T09:53:38;10.68;;;5.85;;
19671;SDS011;9983;51.114;13.788;2022-12-07T09:58:40;7.13;;;5.65;;
19671;SDS011;9983;51.114;13.788;2022-12-07T10:03:42;4.90;;;4.03;;
19671;SDS011;9983;51.114;13.788;2022-12-07T10:08:48;5.38;;;4.75;;
19671;SDS011;9983;51.114;13.788;2022-12-07T10:13:51;6.60;;;5.45;;
19671;SDS011;9983;51.114;13.788;2022-12-07T10:18:54;6.03;;;4.15;;
19671;SDS011;9983;51.114;13.788;2022-12-07T10:29:01;6.40;;;4.03;;
19671;SDS011;9983;51.114;13.788;2022-12-07T10:34:25;7.22;;;4.03;;
19671;SDS011;9983;51.114;13.788;2022-12-07T10:39:40;6.55;;;4.60;;
19671;SDS011;9983;51.114;13.788;2022-12-07T10:44:48;6.22;;;3.97;;
19671;SDS011;9983;51.114;13.788;2022-12-07T11:00:19;4.57;;;3.47;;
19671;SDS011;9983;51.114;13.788;2022-12-07T11:26:52;6.78;;;4.53;;
19671;SDS011;9983;51.114;13.788;2022-12-07T11:32:09;6.00;;;4.35;;
19671;SDS011;9983;51.114;13.788;2022-12-07T11:37:24;6.30;;;4.75;;
19671;SDS011;9983;51.114;13.788;2022-12-07T11:42:37;7.15;;;5.22;;
19671;SDS011;9983;51.114;13.788;2022-12-07T11:53:17;4.88;;;3.65;;
19671;SDS011;9983;51.114;13.788;2022-12-07T12:03:48;5.60;;;4.22;;
19671;SDS011;9983;51.114;13.788;2022-12-07T12:14:11;8.30;;;5.57;;
19671;SDS011;9983;51.114;13.788;2022-12-07T12:19:41;6.40;;;4.93;;
19671;SDS011;9983;51.114;13.788;2022-12-07T12:24:45;5.50;;;3.88;;
19671;SDS011;9983;51.114;13.788;2022-12-07T12:29:52;9.38;;;5.57;;
19671;SDS011;9983;51.114;13.788;2022-12-07T12:34:59;9.38;;;5.88;;
19671;SDS011;9983;51.114;13.788;2022-12-07T12:50:23;9.10;;;5.70;;
19671;SDS011;9983;51.114;13.788;2022-12-07T13:00:43;9.60;;;5.82;;
19671;SDS011;9983;51.114;13.788;2022-12-07T13:05:45;10.30;;;5.05;;
19671;SDS011;9983;51.114;13.788;2022-12-07T13:10:46;8.05;;;4.85;;
19671;SDS011;9983;51.114;13.788;2022-12-07T13:36:25;2.55;;;1.40;;
19671;SDS011;9983;51.114;13.788;2022-12-07T13:41:35;2.75;;;2.33;;
19671;SDS011;9983;51.114;13.788;2022-12-07T13:52:19;5.78;;;4.22;;
19671;SDS011;9983;51.114;13.788;2022-12-07T13:57:20;4.80;;;4.28;;
19671;SDS011;9983;51.114;13.788;2022-12-07T14:07:25;5.30;;;4.32;;
19671;SDS011;9983;51.114;13.788;2022-12-07T14:12:28;4.70;;;4.20;;
19671;SDS011;9983;51.114;13.788;2022-12-07T14:17:30;7.63;;;4.85;;
19671;SDS011;9983;51.114;13.788;2022-12-07T14:22:34;6.63;;;4.85;;
19671;SDS011;9983;51.114;13.788;2022-12-07T14:27:35;7.13;;;4.53;;
19671;SDS011;9983;51.114;13.788;2022-12-07T14:32:37;7.65;;;5.25;;
19671;SDS011;9983;51.114;13.788;2022-12-07T14:37:38;6.55;;;5.38;;
19671;SDS011;9983;51.114;13.788;2022-12-07T14:42:39;8.18;;;5.43;;
19671;SDS011;9983;51.114;13.788;2022-12-07T14:47:41;7.45;;;5.70;;
19671;SDS011;9983;51.114;13.788;2022-12-07T14:52:42;6.63;;;5.30;;
19671;SDS011;9983;51.114;13.788;2022-12-07T14:57:45;6.20;;;5.03;;
19671;SDS011;9983;51.114;13.788;2022-12-07T15:02:46;6.97;;;5.15;;
19671;SDS011;9983;51.114;13.788;2022-12-07T15:07:47;6.65;;;5.00;;
19671;SDS011;9983;51.114;13.788;2022-12-07T15:12:48;11.13;;;5.55;;
19671;SDS011;9983;51.114;13.788;2022-12-07T15:17:48;8.35;;;6.03;;
19671;SDS011;9983;51.114;13.788;2022-12-07T15:22:48;7.18;;;5.85;;
19671;SDS011;9983;51.114;13.788;2022-12-07T15:27:49;6.03;;;3.83;;
19671;SDS011;9983;51.114;13.788;2022-12-07T15:32:49;7.45;;;3.65;;
19671;SDS011;9983;51.114;13.788;2022-12-07T15:37:50;5.22;;;3.78;;
19671;SDS011;9983;51.114;13.788;2022-12-07T15:42:51;4.07;;;2.80;;
19671;SDS011;9983;51.114;13.788;2022-12-07T15:47:51;4.35;;;3.95;;
19671;SDS011;9983;51.114;13.788;2022-12-07T15:52:51;9.73;;;4.85;;
19671;SDS011;9983;51.114;13.788;2022-12-07T15:57:51;5.40;;;4.30;;
19671;SDS011;9983;51.114;13.788;2022-12-07T16:02:52;5.03;;;4.07;;
19671;SDS011;9983;51.114;13.788;2022-12-07T16:07:52;4.97;;;4.20;;
19671;SDS011;9983;51.114;13.788;2022-12-07T16:12:52;9.52;;;5.13;;
19671;SDS011;9983;51.114;13.788;2022-12-07T16:17:52;7.25;;;4.07;;
19671;SDS011;9983;51.114;13.788;2022-12-07T16:22:53;7.50;;;4.47;;
19671;SDS011;9983;51.114;13.788;2022-12-07T16:27:54;8.18;;;4.78;;
19671;SDS011;9983;51.114;13.788;2022-12-07T16:32:54;5.03;;;4.13;;
19671;SDS011;9983;51.114;13.788;2022-12-07T16:37:54;5.30;;;4.07;;
19671;SDS011;9983;51.114;13.788;2022-12-07T16:42:55;7.40;;;3.78;;
19671;SDS011;9983;51.114;13.788;2022-12-07T16:47:55;6.72;;;4.05;;
19671;SDS011;9983;51.114;13.788;2022-12-07T16:52:55;5.40;;;3.67;;
19671;SDS011;9983;51.114;13.788;2022-12-07T16:57:55;8.18;;;3.42;;
19671;SDS011;9983;51.114;13.788;2022-12-07T17:02:56;3.88;;;2.83;;
19671;SDS011;9983;51.114;13.788;2022-12-07T17:07:56;4.07;;;3.00;;
19671;SDS011;9983;51.114;13.788;2022-12-07T17:12:57;6.53;;;2.72;;
19671;SDS011;9983;51.114;13.788;2022-12-07T17:17:57;6.15;;;2.60;;
19671;SDS011;9983;51.114;13.788;2022-12-07T17:22:58;3.17;;;2.53;;
19671;SDS011;9983;51.114;13.788;2022-12-07T17:27:58;3.00;;;2.70;;
19671;SDS011;9983;51.114;13.788;2022-12-07T17:32:58;5.30;;;2.40;;
19671;SDS011;9983;51.114;13.788;2022-12-07T17:37:58;3.28;;;2.95;;
19671;SDS011;9983;51.114;13.788;2022-12-07T17:42:59;4.22;;;3.25;;
19671;SDS011;9983;51.114;13.788;2022-12-07T17:47:59;7.10;;;4.88;;
19671;SDS011;9983;51.114;13.788;2022-12-07T17:52:59;8.38;;;5.22;;
19671;SDS011;9983;51.114;13.788;2022-12-07T17:58:12;2.92;;;2.17;;
19671;SDS011;9983;51.114;13.788;2022-12-07T18:03:12;2.50;;;2.30;;
19671;SDS011;9983;51.114;13.788;2022-12-07T18:08:12;4.88;;;2.35;;
19671;SDS011;9983;51.114;13.788;2022-12-07T18:13:12;3.13;;;2.00;;
19671;SDS011;9983;51.114;13.788;2022-12-07T18:18:31;4.68;;;2.08;;
19671;SDS011;9983;51.114;13.788;2022-12-07T18:23:32;4.35;;;1.60;;
19671;SDS011;9983;51.114;13.788;2022-12-07T18:28:32;2.22;;;1.80;;
19671;SDS011;9983;51.114;13.788;2022-12-07T18:33:33;2.50;;;2.15;;
19671;SDS011;9983;51.114;13.788;2022-12-07T18:38:33;3.20;;;1.65;;
19671;SDS011;9983;51.114;13.788;2022-12-07T18:43:34;2.20;;;1.88;;
19671;SDS011;9983;51.114;13.788;2022-12-07T18:48:34;2.33;;;1.98;;
19671;SDS011;9983;51.114;13.788;2022-12-07T18:53:34;4.80;;;2.30;;
19671;SDS011;9983;51.114;13.788;2022-12-07T18:58:35;4.95;;;2.03;;
19671;SDS011;9983;51.114;13.788;2022-12-07T19:03:36;3.78;;;2.28;;
19671;SDS011;9983;51.114;13.788;2022-12-07T19:08:37;3.22;;;2.60;;
19671;SDS011;9983;51.114;13.788;2022-12-07T19:13:37;2.95;;;2.33;;
19671;SDS011;9983;51.114;13.788;2022-12-07T19:18:39;2.85;;;2.20;;
19671;SDS011;9983;51.114;13.788;2022-12-07T19:23:39;2.33;;;2.13;;
19671;SDS011;9983;51.114;13.788;2022-12-07T19:28:39;4.40;;;2.55;;
19671;SDS011;9983;51.114;13.788;2022-12-07T19:33:40;3.72;;;2.33;;
19671;SDS011;9983;51.114;13.788;2022-12-07T19:38:40;4.47;;;2.70;;
19671;SDS011;9983;51.114;13.788;2022-12-07T19:43:40;3.15;;;2.20;;
19671;SDS011;9983;51.114;13.788;2022-12-07T19:48:40;3.25;;;2.95;;
19671;SDS011;9983;51.114;13.788;2022-12-07T19:53:41;4.45;;;2.65;;
19671;SDS011;9983;51.114;13.788;2022-12-07T19:58:41;4.50;;;3.05;;
19671;SDS011;9983;51.114;13.788;2022-12-07T20:03:41;5.40;;;2.90;;
19671;SDS011;9983;51.114;13.788;2022-12-07T20:08:42;4.25;;;3.10;;
19671;SDS011;9983;51.114;13.788;2022-12-07T20:13:44;6.65;;;3.97;;
19671;SDS011;9983;51.114;13.788;2022-12-07T20:18:44;6.53;;;3.50;;
19671;SDS011;9983;51.114;13.788;2022-12-07T20:23:45;4.65;;;3.10;;
19671;SDS011;9983;51.114;13.788;2022-12-07T20:28:45;5.50;;;3.60;;
19671;SDS011;9983;51.114;13.788;2022-12-07T20:33:47;7.68;;;3.40;;
19671;SDS011;9983;51.114;13.788;2022-12-07T20:38:47;6.57;;;3.40;;
19671;SDS011;9983;51.114;13.788;2022-12-07T20:43:47;5.22;;;3.70;;
19671;SDS011;9983;51.114;13.788;2022-12-07T20:48:48;6.50;;;4.00;;
19671;SDS011;9983;51.114;13.788;2022-12-07T20:53:48;4.63;;;3.25;;
19671;SDS011;9983;51.114;13.788;2022-12-07T20:58:48;5.20;;;3.10;;
19671;SDS011;9983;51.114;13.788;2022-12-07T21:03:49;4.47;;;3.25;;
19671;SDS011;9983;51.114;13.788;2022-12-07T21:08:54;4.10;;;2.97;;
19671;SDS011;9983;51.114;13.788;2022-12-07T21:13:56;3.78;;;2.80;;
19671;SDS011;9983;51.114;13.788;2022-12-07T21:18:58;4.78;;;3.35;;
19671;SDS011;9983;51.114;13.788;2022-12-07T21:24:02;5.30;;;2.85;;
19671;SDS011;9983;51.114;13.788;2022-12-07T21:29:04;4.07;;;3.03;;
19671;SDS011;9983;51.114;13.788;2022-12-07T21:34:06;6.28;;;3.35;;
19671;SDS011;9983;51.114;13.788;2022-12-07T21:39:06;5.53;;;3.10;;
19671;SDS011;9983;51.114;13.788;2022-12-07T21:44:07;6.95;;;3.28;;
19671;SDS011;9983;51.114;13.788;2022-12-07T21:49:10;6.20;;;3.28;;
19671;SDS011;9983;51.114;13.788;2022-12-07T21:54:12;3.92;;;3.05;;
19671;SDS011;9983;51.114;13.788;2022-12-07T21:59:13;4.20;;;3.47;;
19671;SDS011;9983;51.114;13.788;2022-12-07T22:04:17;7.65;;;3.85;;
19671;SDS011;9983;51.114;13.788;2022-12-07T22:09:19;5.75;;;3.67;;
19671;SDS011;9983;51.114;13.788;2022-12-07T22:14:22;5.20;;;3.65;;
19671;SDS011;9983;51.114;13.788;2022-12-07T22:19:41;5.53;;;3.72;;
19671;SDS011;9983;51.114;13.788;2022-12-07T22:24:41;7.32;;;3.80;;
19671;SDS011;9983;51.114;13.788;2022-12-07T22:29:42;4.10;;;3.47;;
19671;SDS011;9983;51.114;13.788;2022-12-07T22:34:42;6.88;;;3.78;;
19671;SDS011;9983;51.114;13.788;2022-12-07T22:39:42;8.55;;;3.80;;
19671;SDS011;9983;51.114;13.788;2022-12-07T22:44:43;6.15;;;3.42;;
19671;SDS011;9983;51.114;13.788;2022-12-07T22:49:43;7.45;;;3.10;;
19671;SDS011;9983;51.114;13.788;2022-12-07T22:54:43;4.53;;;3.13;;
19671;SDS011;9983;51.114;13.788;2022-12-07T22:59:44;7.68;;;3.45;;
19671;SDS011;9983;51.114;13.788;2022-12-07T23:04:44;7.28;;;3.60;;
19671;SDS011;9983;51.114;13.788;2022-12-07T23:09:44;3.53;;;3.22;;
19671;SDS011;9983;51.114;13.788;2022-12-07T23:14:45;6.88;;;3.60;;
19671;SDS011;9983;51.114;13.788;2022-12-07T23:19:45;6.78;;;4.00;;
19671;SDS011;9983;51.114;13.788;2022-12-07T23:24:45;6.07;;;3.65;;
19671;SDS011;9983;51.114;13.788;2022-12-07T23:29:45;5.85;;;3.50;;
19671;SDS011;9983;51.114;13.788;2022-12-07T23:34:46;4.90;;;3.08;;
19671;SDS011;9983;51.114;13.788;2022-12-07T23:39:46;6.40;;;3.40;;
19671;SDS011;9983;51.114;13.788;2022-12-07T23:44:46;5.72;;;3.05;;
19671;SDS011;9983;51.114;13.788;2022-12-07T23:49:47;5.15;;;3.92;;
19671;SDS011;9983;51.114;13.788;2022-12-07T23:54:47;3.95;;;3.00;;
19671;SDS011;9983;51.114;13.788;2022-12-07T23:59:47;4.97;;;3.28;;
